sensor_id;sensor_type;location;lat;lon;timestamp;P1;durP1;ratioP1;P2;durP2;ratioP2
11604;SDS011;5858;43.076;25.626;2023-04-03T00:00:10;6.13;;;3.80;;
11604;SDS011;5858;43.076;25.626;2023-04-03T00:02:45;5.07;;;3.70;;
11604;SDS011;5858;43.076;25.626;2023-04-03T00:05:20;4.97;;;3.43;;
11604;SDS011;5858;43.076;25.626;2023-04-03T00:07:47;3.83;;;3.10;;
11604;SDS011;5858;43.076;25.626;2023-04-03T00:10:16;3.93;;;2.70;;
11604;SDS011;5858;43.076;25.626;2023-04-03T00:12:43;3.93;;;2.77;;
11604;SDS011;5858;43.076;25.626;2023-04-03T00:15:10;7.10;;;3.10;;
11604;SDS011;5858;43.076;25.626;2023-04-03T00:17:37;3.73;;;3.00;;
11604;SDS011;5858;43.076;25.626;2023-04-03T00:20:05;4.53;;;2.80;;
11604;SDS011;5858;43.076;25.626;2023-04-03T00:22:41;6.03;;;2.80;;
11604;SDS011;5858;43.076;25.626;2023-04-03T00:25:09;5.57;;;3.20;;
11604;SDS011;5858;43.076;25.626;2023-04-03T00:27:38;4.07;;;3.17;;
11604;SDS011;5858;43.076;25.626;2023-04-03T00:30:07;3.93;;;2.70;;
11604;SDS011;5858;43.076;25.626;2023-04-03T00:32:39;4.70;;;3.50;;
11604;SDS011;5858;43.076;25.626;2023-04-03T00:35:06;6.07;;;3.77;;
11604;SDS011;5858;43.076;25.626;2023-04-03T00:37:38;5.87;;;3.50;;
11604;SDS011;5858;43.076;25.626;2023-04-03T00:40:06;4.47;;;3.13;;
11604;SDS011;5858;43.076;25.626;2023-04-03T00:42:38;6.47;;;3.93;;
11604;SDS011;5858;43.076;25.626;2023-04-03T00:45:27;5.63;;;3.50;;
11604;SDS011;5858;43.076;25.626;2023-04-03T00:48:06;5.27;;;3.50;;
11604;SDS011;5858;43.076;25.626;2023-04-03T00:50:37;5.63;;;3.67;;
11604;SDS011;5858;43.076;25.626;2023-04-03T00:53:09;4.47;;;2.90;;
11604;SDS011;5858;43.076;25.626;2023-04-03T00:55:39;8.17;;;3.73;;
11604;SDS011;5858;43.076;25.626;2023-04-03T00:58:06;4.07;;;2.93;;
11604;SDS011;5858;43.076;25.626;2023-04-03T01:00:34;4.57;;;3.23;;
11604;SDS011;5858;43.076;25.626;2023-04-03T01:03:03;12.83;;;6.60;;
11604;SDS011;5858;43.076;25.626;2023-04-03T01:05:30;10.70;;;6.40;;
11604;SDS011;5858;43.076;25.626;2023-04-03T01:07:58;6.57;;;3.90;;
11604;SDS011;5858;43.076;25.626;2023-04-03T01:10:27;3.87;;;2.50;;
11604;SDS011;5858;43.076;25.626;2023-04-03T01:12:54;6.57;;;3.70;;
11604;SDS011;5858;43.076;25.626;2023-04-03T01:15:22;3.83;;;2.93;;
11604;SDS011;5858;43.076;25.626;2023-04-03T01:17:52;4.03;;;2.80;;
11604;SDS011;5858;43.076;25.626;2023-04-03T01:23:41;14.27;;;6.60;;
11604;SDS011;5858;43.076;25.626;2023-04-03T01:26:24;10.80;;;5.00;;
11604;SDS011;5858;43.076;25.626;2023-04-03T01:28:53;7.67;;;3.67;;
11604;SDS011;5858;43.076;25.626;2023-04-03T01:31:22;7.67;;;3.57;;
11604;SDS011;5858;43.076;25.626;2023-04-03T01:33:54;6.70;;;3.30;;
11604;SDS011;5858;43.076;25.626;2023-04-03T01:36:25;5.53;;;3.60;;
11604;SDS011;5858;43.076;25.626;2023-04-03T01:38:54;6.03;;;3.03;;
11604;SDS011;5858;43.076;25.626;2023-04-03T01:41:22;4.23;;;3.10;;
11604;SDS011;5858;43.076;25.626;2023-04-03T01:43:50;7.33;;;3.43;;
11604;SDS011;5858;43.076;25.626;2023-04-03T01:46:18;4.03;;;2.67;;
11604;SDS011;5858;43.076;25.626;2023-04-03T01:48:46;3.63;;;2.87;;
11604;SDS011;5858;43.076;25.626;2023-04-03T01:51:15;47.73;;;17.87;;
11604;SDS011;5858;43.076;25.626;2023-04-03T01:53:42;18.77;;;8.67;;
11604;SDS011;5858;43.076;25.626;2023-04-03T01:56:09;7.27;;;4.03;;
11604;SDS011;5858;43.076;25.626;2023-04-03T01:58:36;3.40;;;2.53;;
11604;SDS011;5858;43.076;25.626;2023-04-03T02:01:03;3.80;;;2.43;;
11604;SDS011;5858;43.076;25.626;2023-04-03T02:03:31;3.97;;;3.17;;
11604;SDS011;5858;43.076;25.626;2023-04-03T02:05:58;5.57;;;2.87;;
11604;SDS011;5858;43.076;25.626;2023-04-03T02:08:26;5.20;;;3.30;;
11604;SDS011;5858;43.076;25.626;2023-04-03T02:10:53;5.33;;;3.47;;
11604;SDS011;5858;43.076;25.626;2023-04-03T02:13:20;3.67;;;3.10;;
11604;SDS011;5858;43.076;25.626;2023-04-03T02:15:51;4.43;;;2.90;;
11604;SDS011;5858;43.076;25.626;2023-04-03T02:18:18;4.47;;;3.20;;
11604;SDS011;5858;43.076;25.626;2023-04-03T02:20:46;3.83;;;2.80;;
11604;SDS011;5858;43.076;25.626;2023-04-03T02:23:13;4.30;;;2.93;;
11604;SDS011;5858;43.076;25.626;2023-04-03T02:25:41;7.90;;;3.13;;
11604;SDS011;5858;43.076;25.626;2023-04-03T02:28:08;5.87;;;3.13;;
11604;SDS011;5858;43.076;25.626;2023-04-03T02:30:36;6.07;;;2.97;;
11604;SDS011;5858;43.076;25.626;2023-04-03T02:33:03;4.97;;;2.87;;
11604;SDS011;5858;43.076;25.626;2023-04-03T02:35:30;5.73;;;2.53;;
11604;SDS011;5858;43.076;25.626;2023-04-03T02:37:57;4.93;;;2.40;;
11604;SDS011;5858;43.076;25.626;2023-04-03T02:40:24;2.53;;;2.13;;
11604;SDS011;5858;43.076;25.626;2023-04-03T02:42:52;4.47;;;2.63;;
11604;SDS011;5858;43.076;25.626;2023-04-03T02:45:19;5.23;;;2.90;;
11604;SDS011;5858;43.076;25.626;2023-04-03T02:47:46;5.10;;;2.80;;
11604;SDS011;5858;43.076;25.626;2023-04-03T02:50:13;3.57;;;2.67;;
11604;SDS011;5858;43.076;25.626;2023-04-03T02:52:40;4.93;;;2.43;;
11604;SDS011;5858;43.076;25.626;2023-04-03T02:55:07;5.23;;;2.77;;
11604;SDS011;5858;43.076;25.626;2023-04-03T02:57:35;7.77;;;4.50;;
11604;SDS011;5858;43.076;25.626;2023-04-03T03:00:04;7.47;;;2.80;;
11604;SDS011;5858;43.076;25.626;2023-04-03T03:02:32;5.17;;;2.90;;
11604;SDS011;5858;43.076;25.626;2023-04-03T03:04:59;3.50;;;3.20;;
11604;SDS011;5858;43.076;25.626;2023-04-03T03:07:26;7.07;;;4.13;;
11604;SDS011;5858;43.076;25.626;2023-04-03T03:09:52;7.67;;;4.60;;
11604;SDS011;5858;43.076;25.626;2023-04-03T03:12:19;4.93;;;3.53;;
11604;SDS011;5858;43.076;25.626;2023-04-03T03:14:48;6.17;;;3.73;;
11604;SDS011;5858;43.076;25.626;2023-04-03T03:17:17;8.47;;;3.40;;
11604;SDS011;5858;43.076;25.626;2023-04-03T03:19:44;5.37;;;3.70;;
11604;SDS011;5858;43.076;25.626;2023-04-03T03:22:12;7.47;;;3.50;;
11604;SDS011;5858;43.076;25.626;2023-04-03T03:24:39;7.27;;;4.03;;
11604;SDS011;5858;43.076;25.626;2023-04-03T03:27:06;8.53;;;4.53;;
11604;SDS011;5858;43.076;25.626;2023-04-03T03:29:33;9.73;;;4.50;;
11604;SDS011;5858;43.076;25.626;2023-04-03T03:32:00;9.20;;;3.83;;
11604;SDS011;5858;43.076;25.626;2023-04-03T03:34:28;5.07;;;3.40;;
11604;SDS011;5858;43.076;25.626;2023-04-03T03:36:55;7.90;;;3.50;;
11604;SDS011;5858;43.076;25.626;2023-04-03T03:39:23;4.97;;;3.40;;
11604;SDS011;5858;43.076;25.626;2023-04-03T03:41:50;5.47;;;3.27;;
11604;SDS011;5858;43.076;25.626;2023-04-03T03:44:18;7.77;;;3.07;;
11604;SDS011;5858;43.076;25.626;2023-04-03T03:46:45;7.67;;;3.50;;
11604;SDS011;5858;43.076;25.626;2023-04-03T03:49:12;5.63;;;3.43;;
11604;SDS011;5858;43.076;25.626;2023-04-03T03:51:40;4.07;;;3.13;;
11604;SDS011;5858;43.076;25.626;2023-04-03T03:54:07;5.47;;;3.73;;
11604;SDS011;5858;43.076;25.626;2023-04-03T03:56:36;6.47;;;4.17;;
11604;SDS011;5858;43.076;25.626;2023-04-03T03:59:03;7.80;;;3.90;;
11604;SDS011;5858;43.076;25.626;2023-04-03T04:01:32;8.07;;;4.20;;
11604;SDS011;5858;43.076;25.626;2023-04-03T04:04:02;4.43;;;3.70;;
11604;SDS011;5858;43.076;25.626;2023-04-03T04:06:32;7.17;;;3.60;;
11604;SDS011;5858;43.076;25.626;2023-04-03T04:09:05;9.30;;;5.00;;
11604;SDS011;5858;43.076;25.626;2023-04-03T04:11:32;8.80;;;5.43;;
11604;SDS011;5858;43.076;25.626;2023-04-03T04:14:02;8.30;;;3.97;;
11604;SDS011;5858;43.076;25.626;2023-04-03T04:16:29;7.43;;;4.00;;
11604;SDS011;5858;43.076;25.626;2023-04-03T04:18:56;5.30;;;4.03;;
11604;SDS011;5858;43.076;25.626;2023-04-03T04:21:26;6.00;;;3.47;;
11604;SDS011;5858;43.076;25.626;2023-04-03T04:23:53;5.07;;;3.70;;
11604;SDS011;5858;43.076;25.626;2023-04-03T04:26:22;7.73;;;4.43;;
11604;SDS011;5858;43.076;25.626;2023-04-03T04:28:49;8.50;;;5.60;;
11604;SDS011;5858;43.076;25.626;2023-04-03T04:31:16;9.90;;;4.77;;
11604;SDS011;5858;43.076;25.626;2023-04-03T04:33:43;8.60;;;4.77;;
11604;SDS011;5858;43.076;25.626;2023-04-03T04:36:10;6.77;;;4.23;;
11604;SDS011;5858;43.076;25.626;2023-04-03T04:38:37;6.83;;;4.27;;
11604;SDS011;5858;43.076;25.626;2023-04-03T04:41:06;7.77;;;4.67;;
11604;SDS011;5858;43.076;25.626;2023-04-03T04:43:44;10.90;;;6.67;;
11604;SDS011;5858;43.076;25.626;2023-04-03T04:46:11;12.97;;;4.23;;
11604;SDS011;5858;43.076;25.626;2023-04-03T04:48:38;8.43;;;4.53;;
11604;SDS011;5858;43.076;25.626;2023-04-03T04:51:14;8.57;;;4.70;;
11604;SDS011;5858;43.076;25.626;2023-04-03T04:53:42;11.60;;;6.27;;
11604;SDS011;5858;43.076;25.626;2023-04-03T04:56:09;11.30;;;6.50;;
11604;SDS011;5858;43.076;25.626;2023-04-03T04:58:36;9.23;;;5.70;;
11604;SDS011;5858;43.076;25.626;2023-04-03T05:01:05;9.60;;;5.63;;
11604;SDS011;5858;43.076;25.626;2023-04-03T05:03:35;7.90;;;4.97;;
11604;SDS011;5858;43.076;25.626;2023-04-03T05:06:02;9.00;;;5.03;;
11604;SDS011;5858;43.076;25.626;2023-04-03T05:08:30;7.30;;;5.20;;
11604;SDS011;5858;43.076;25.626;2023-04-03T05:10:58;8.67;;;4.37;;
11604;SDS011;5858;43.076;25.626;2023-04-03T05:13:25;6.47;;;3.47;;
11604;SDS011;5858;43.076;25.626;2023-04-03T05:15:52;5.40;;;3.27;;
11604;SDS011;5858;43.076;25.626;2023-04-03T05:18:21;5.27;;;3.20;;
11604;SDS011;5858;43.076;25.626;2023-04-03T05:20:48;5.77;;;3.73;;
11604;SDS011;5858;43.076;25.626;2023-04-03T05:23:18;4.87;;;3.93;;
11604;SDS011;5858;43.076;25.626;2023-04-03T05:25:45;5.00;;;3.67;;
11604;SDS011;5858;43.076;25.626;2023-04-03T05:28:14;5.20;;;3.40;;
11604;SDS011;5858;43.076;25.626;2023-04-03T05:30:41;5.33;;;3.60;;
11604;SDS011;5858;43.076;25.626;2023-04-03T05:33:08;9.77;;;5.73;;
11604;SDS011;5858;43.076;25.626;2023-04-03T05:35:37;5.50;;;3.40;;
11604;SDS011;5858;43.076;25.626;2023-04-03T05:38:07;8.47;;;5.10;;
11604;SDS011;5858;43.076;25.626;2023-04-03T05:40:34;6.17;;;3.27;;
11604;SDS011;5858;43.076;25.626;2023-04-03T05:43:03;5.33;;;2.90;;
11604;SDS011;5858;43.076;25.626;2023-04-03T05:45:30;4.30;;;2.87;;
11604;SDS011;5858;43.076;25.626;2023-04-03T05:47:58;7.00;;;2.70;;
11604;SDS011;5858;43.076;25.626;2023-04-03T05:50:25;4.70;;;2.07;;
11604;SDS011;5858;43.076;25.626;2023-04-03T05:52:54;3.77;;;2.70;;
11604;SDS011;5858;43.076;25.626;2023-04-03T05:55:23;6.07;;;2.50;;
11604;SDS011;5858;43.076;25.626;2023-04-03T05:57:51;9.93;;;3.73;;
11604;SDS011;5858;43.076;25.626;2023-04-03T06:00:18;3.20;;;2.47;;
11604;SDS011;5858;43.076;25.626;2023-04-03T06:02:46;5.27;;;3.20;;
11604;SDS011;5858;43.076;25.626;2023-04-03T06:05:13;3.80;;;2.47;;
11604;SDS011;5858;43.076;25.626;2023-04-03T06:07:40;2.77;;;2.23;;
11604;SDS011;5858;43.076;25.626;2023-04-03T06:10:10;6.73;;;2.77;;
11604;SDS011;5858;43.076;25.626;2023-04-03T06:12:38;4.80;;;2.63;;
11604;SDS011;5858;43.076;25.626;2023-04-03T06:15:05;6.47;;;3.50;;
11604;SDS011;5858;43.076;25.626;2023-04-03T06:17:35;13.03;;;4.13;;
11604;SDS011;5858;43.076;25.626;2023-04-03T06:20:02;9.10;;;4.23;;
11604;SDS011;5858;43.076;25.626;2023-04-03T06:22:30;8.03;;;4.13;;
11604;SDS011;5858;43.076;25.626;2023-04-03T06:24:57;7.93;;;3.90;;
11604;SDS011;5858;43.076;25.626;2023-04-03T06:27:26;5.60;;;3.00;;
11604;SDS011;5858;43.076;25.626;2023-04-03T06:29:54;6.50;;;3.17;;
11604;SDS011;5858;43.076;25.626;2023-04-03T06:32:21;9.13;;;3.77;;
11604;SDS011;5858;43.076;25.626;2023-04-03T06:34:48;8.77;;;5.20;;
11604;SDS011;5858;43.076;25.626;2023-04-03T06:37:16;6.80;;;4.40;;
11604;SDS011;5858;43.076;25.626;2023-04-03T06:39:46;3.63;;;2.33;;
11604;SDS011;5858;43.076;25.626;2023-04-03T06:42:14;2.43;;;2.10;;
11604;SDS011;5858;43.076;25.626;2023-04-03T06:44:42;6.43;;;4.03;;
11604;SDS011;5858;43.076;25.626;2023-04-03T06:47:10;3.87;;;2.90;;
11604;SDS011;5858;43.076;25.626;2023-04-03T06:49:39;3.93;;;2.90;;
11604;SDS011;5858;43.076;25.626;2023-04-03T06:52:06;8.63;;;4.27;;
11604;SDS011;5858;43.076;25.626;2023-04-03T06:54:33;6.20;;;3.60;;
11604;SDS011;5858;43.076;25.626;2023-04-03T06:57:01;12.97;;;9.17;;
11604;SDS011;5858;43.076;25.626;2023-04-03T06:59:28;5.67;;;4.10;;
11604;SDS011;5858;43.076;25.626;2023-04-03T07:01:59;4.43;;;3.40;;
11604;SDS011;5858;43.076;25.626;2023-04-03T07:04:27;7.37;;;4.17;;
11604;SDS011;5858;43.076;25.626;2023-04-03T07:06:54;6.93;;;5.00;;
11604;SDS011;5858;43.076;25.626;2023-04-03T07:09:25;6.83;;;5.60;;
11604;SDS011;5858;43.076;25.626;2023-04-03T07:11:52;8.07;;;6.37;;
11604;SDS011;5858;43.076;25.626;2023-04-03T07:14:19;9.37;;;6.87;;
11604;SDS011;5858;43.076;25.626;2023-04-03T07:16:46;7.17;;;4.70;;
11604;SDS011;5858;43.076;25.626;2023-04-03T07:19:15;9.50;;;6.57;;
11604;SDS011;5858;43.076;25.626;2023-04-03T07:21:43;5.93;;;4.17;;
11604;SDS011;5858;43.076;25.626;2023-04-03T07:24:10;8.98;;;4.25;;
11604;SDS011;5858;43.076;25.626;2023-04-03T07:26:38;9.45;;;4.85;;
11604;SDS011;5858;43.076;25.626;2023-04-03T07:29:05;6.78;;;4.30;;
11604;SDS011;5858;43.076;25.626;2023-04-03T07:31:34;6.85;;;5.68;;
11604;SDS011;5858;43.076;25.626;2023-04-03T07:34:01;11.57;;;4.93;;
11604;SDS011;5858;43.076;25.626;2023-04-03T07:36:30;5.20;;;4.60;;
11604;SDS011;5858;43.076;25.626;2023-04-03T07:38:58;8.73;;;4.70;;
11604;SDS011;5858;43.076;25.626;2023-04-03T07:41:25;7.10;;;4.85;;
11604;SDS011;5858;43.076;25.626;2023-04-03T07:43:53;6.18;;;4.05;;
11604;SDS011;5858;43.076;25.626;2023-04-03T07:46:21;5.40;;;3.58;;
11604;SDS011;5858;43.076;25.626;2023-04-03T07:48:48;6.45;;;3.40;;
11604;SDS011;5858;43.076;25.626;2023-04-03T07:51:16;5.25;;;3.90;;
11604;SDS011;5858;43.076;25.626;2023-04-03T07:53:50;7.93;;;5.28;;
11604;SDS011;5858;43.076;25.626;2023-04-03T07:56:17;6.20;;;3.33;;
11604;SDS011;5858;43.076;25.626;2023-04-03T07:58:45;5.75;;;2.88;;
11604;SDS011;5858;43.076;25.626;2023-04-03T08:01:12;5.32;;;3.42;;
11604;SDS011;5858;43.076;25.626;2023-04-03T08:03:40;3.53;;;1.98;;
11604;SDS011;5858;43.076;25.626;2023-04-03T08:06:07;2.40;;;2.20;;
11604;SDS011;5858;43.076;25.626;2023-04-03T08:08:37;3.08;;;2.42;;
11604;SDS011;5858;43.076;25.626;2023-04-03T08:11:06;3.00;;;2.30;;
11604;SDS011;5858;43.076;25.626;2023-04-03T08:13:33;2.10;;;1.42;;
11604;SDS011;5858;43.076;25.626;2023-04-03T08:16:06;2.13;;;1.77;;
11604;SDS011;5858;43.076;25.626;2023-04-03T08:18:35;4.32;;;1.85;;
11604;SDS011;5858;43.076;25.626;2023-04-03T08:21:05;4.07;;;1.90;;
11604;SDS011;5858;43.076;25.626;2023-04-03T08:23:32;1.98;;;1.50;;
11604;SDS011;5858;43.076;25.626;2023-04-03T08:26:06;3.47;;;1.95;;
11604;SDS011;5858;43.076;25.626;2023-04-03T08:28:33;4.75;;;2.03;;
11604;SDS011;5858;43.076;25.626;2023-04-03T08:31:04;2.92;;;2.22;;
11604;SDS011;5858;43.076;25.626;2023-04-03T08:33:32;3.20;;;1.60;;
11604;SDS011;5858;43.076;25.626;2023-04-03T08:36:00;1.92;;;1.48;;
11604;SDS011;5858;43.076;25.626;2023-04-03T08:38:28;1.80;;;1.55;;
11604;SDS011;5858;43.076;25.626;2023-04-03T08:43:44;3.13;;;1.48;;
11604;SDS011;5858;43.076;25.626;2023-04-03T08:46:22;4.30;;;2.85;;
11604;SDS011;5858;43.076;25.626;2023-04-03T08:48:55;5.38;;;2.95;;
11604;SDS011;5858;43.076;25.626;2023-04-03T08:51:27;2.20;;;1.50;;
11604;SDS011;5858;43.076;25.626;2023-04-03T08:53:58;1.58;;;1.35;;
11604;SDS011;5858;43.076;25.626;2023-04-03T08:56:30;3.58;;;1.70;;
11604;SDS011;5858;43.076;25.626;2023-04-03T08:59:00;2.42;;;1.40;;
11604;SDS011;5858;43.076;25.626;2023-04-03T09:01:33;2.53;;;1.67;;
11604;SDS011;5858;43.076;25.626;2023-04-03T09:04:05;4.25;;;2.50;;
11604;SDS011;5858;43.076;25.626;2023-04-03T09:06:39;2.45;;;1.65;;
11604;SDS011;5858;43.076;25.626;2023-04-03T09:09:12;5.65;;;1.42;;
11604;SDS011;5858;43.076;25.626;2023-04-03T09:11:46;2.13;;;1.30;;
11604;SDS011;5858;43.076;25.626;2023-04-03T09:14:23;3.15;;;1.58;;
11604;SDS011;5858;43.076;25.626;2023-04-03T09:16:57;3.00;;;1.80;;
11604;SDS011;5858;43.076;25.626;2023-04-03T09:19:28;4.40;;;1.30;;
11604;SDS011;5858;43.076;25.626;2023-04-03T09:22:07;2.05;;;1.45;;
11604;SDS011;5858;43.076;25.626;2023-04-03T09:24:44;2.28;;;1.25;;
11604;SDS011;5858;43.076;25.626;2023-04-03T09:27:14;1.23;;;1.10;;
11604;SDS011;5858;43.076;25.626;2023-04-03T09:29:42;3.90;;;1.42;;
11604;SDS011;5858;43.076;25.626;2023-04-03T09:32:22;2.15;;;1.60;;
11604;SDS011;5858;43.076;25.626;2023-04-03T09:34:53;4.38;;;1.75;;
11604;SDS011;5858;43.076;25.626;2023-04-03T09:37:39;2.63;;;1.77;;
11604;SDS011;5858;43.076;25.626;2023-04-03T09:45:51;1.60;;;1.50;;
11604;SDS011;5858;43.076;25.626;2023-04-03T09:48:19;2.38;;;1.90;;
11604;SDS011;5858;43.076;25.626;2023-04-03T09:50:53;5.55;;;2.78;;
11604;SDS011;5858;43.076;25.626;2023-04-03T09:53:28;3.80;;;1.70;;
11604;SDS011;5858;43.076;25.626;2023-04-03T09:55:57;2.10;;;1.83;;
11604;SDS011;5858;43.076;25.626;2023-04-03T09:58:27;5.68;;;1.70;;
11604;SDS011;5858;43.076;25.626;2023-04-03T10:00:56;4.55;;;2.83;;
11604;SDS011;5858;43.076;25.626;2023-04-03T10:03:26;1.95;;;1.75;;
11604;SDS011;5858;43.076;25.626;2023-04-03T10:05:56;1.88;;;1.38;;
11604;SDS011;5858;43.076;25.626;2023-04-03T10:08:25;2.83;;;1.27;;
11604;SDS011;5858;43.076;25.626;2023-04-03T10:11:07;1.58;;;1.20;;
11604;SDS011;5858;43.076;25.626;2023-04-03T10:13:38;1.70;;;1.27;;
11604;SDS011;5858;43.076;25.626;2023-04-03T10:16:17;4.65;;;1.88;;
11604;SDS011;5858;43.076;25.626;2023-04-03T10:18:48;1.38;;;1.00;;
11604;SDS011;5858;43.076;25.626;2023-04-03T10:21:23;2.33;;;1.35;;
11604;SDS011;5858;43.076;25.626;2023-04-03T10:24:02;1.38;;;1.27;;
11604;SDS011;5858;43.076;25.626;2023-04-03T10:26:38;1.25;;;1.10;;
11604;SDS011;5858;43.076;25.626;2023-04-03T10:29:18;7.53;;;3.42;;
11604;SDS011;5858;43.076;25.626;2023-04-03T10:31:56;2.50;;;1.77;;
11604;SDS011;5858;43.076;25.626;2023-04-03T10:34:32;1.08;;;0.98;;
11604;SDS011;5858;43.076;25.626;2023-04-03T10:37:05;3.08;;;1.35;;
11604;SDS011;5858;43.076;25.626;2023-04-03T10:39:39;2.85;;;1.30;;
11604;SDS011;5858;43.076;25.626;2023-04-03T10:42:15;3.75;;;1.40;;
11604;SDS011;5858;43.076;25.626;2023-04-03T10:44:55;1.25;;;1.13;;
11604;SDS011;5858;43.076;25.626;2023-04-03T10:47:35;2.60;;;1.95;;
11604;SDS011;5858;43.076;25.626;2023-04-03T10:50:15;3.10;;;1.67;;
11604;SDS011;5858;43.076;25.626;2023-04-03T10:52:55;1.27;;;1.17;;
11604;SDS011;5858;43.076;25.626;2023-04-03T10:55:30;1.20;;;1.10;;
11604;SDS011;5858;43.076;25.626;2023-04-03T10:58:05;4.38;;;1.30;;
11604;SDS011;5858;43.076;25.626;2023-04-03T11:00:45;1.52;;;0.90;;
11604;SDS011;5858;43.076;25.626;2023-04-03T11:03:15;1.00;;;0.90;;
11604;SDS011;5858;43.076;25.626;2023-04-03T11:05:52;1.60;;;0.90;;
11604;SDS011;5858;43.076;25.626;2023-04-03T11:12:17;1.33;;;0.95;;
11604;SDS011;5858;43.076;25.626;2023-04-03T11:15:11;0.75;;;0.75;;
11604;SDS011;5858;43.076;25.626;2023-04-03T11:21:27;1.63;;;1.20;;
11604;SDS011;5858;43.076;25.626;2023-04-03T11:23:59;2.60;;;2.08;;
11604;SDS011;5858;43.076;25.626;2023-04-03T11:26:35;2.72;;;1.92;;
11604;SDS011;5858;43.076;25.626;2023-04-03T11:29:06;5.22;;;2.47;;
11604;SDS011;5858;43.076;25.626;2023-04-03T11:31:41;1.57;;;1.03;;
11604;SDS011;5858;43.076;25.626;2023-04-03T11:34:24;5.43;;;2.47;;
11604;SDS011;5858;43.076;25.626;2023-04-03T11:37:01;6.43;;;3.45;;
11604;SDS011;5858;43.076;25.626;2023-04-03T11:39:38;1.13;;;1.00;;
11604;SDS011;5858;43.076;25.626;2023-04-03T11:42:14;1.52;;;0.90;;
11604;SDS011;5858;43.076;25.626;2023-04-03T11:44:43;1.58;;;1.10;;
11604;SDS011;5858;43.076;25.626;2023-04-03T11:47:11;1.20;;;0.82;;
11604;SDS011;5858;43.076;25.626;2023-04-03T11:50:02;1.98;;;0.75;;
11604;SDS011;5858;43.076;25.626;2023-04-03T11:58:20;0.57;;;0.50;;
11604;SDS011;5858;43.076;25.626;2023-04-03T12:12:57;0.73;;;0.67;;
11604;SDS011;5858;43.076;25.626;2023-04-03T12:21:23;0.57;;;0.50;;
11604;SDS011;5858;43.076;25.626;2023-04-03T12:24:23;1.83;;;0.68;;
11604;SDS011;5858;43.076;25.626;2023-04-03T12:27:02;0.80;;;0.77;;
11604;SDS011;5858;43.076;25.626;2023-04-03T12:29:38;1.67;;;1.10;;
11604;SDS011;5858;43.076;25.626;2023-04-03T12:32:13;3.50;;;1.08;;
11604;SDS011;5858;43.076;25.626;2023-04-03T12:34:53;1.02;;;0.60;;
11604;SDS011;5858;43.076;25.626;2023-04-03T12:37:38;1.00;;;0.77;;
11604;SDS011;5858;43.076;25.626;2023-04-03T12:40:15;2.63;;;0.90;;
11604;SDS011;5858;43.076;25.626;2023-04-03T12:45:56;0.60;;;0.60;;
11604;SDS011;5858;43.076;25.626;2023-04-03T12:48:28;2.55;;;0.90;;
11604;SDS011;5858;43.076;25.626;2023-04-03T12:50:58;0.80;;;0.73;;
11604;SDS011;5858;43.076;25.626;2023-04-03T12:53:26;1.30;;;0.88;;
11604;SDS011;5858;43.076;25.626;2023-04-03T12:55:55;1.88;;;0.93;;
11604;SDS011;5858;43.076;25.626;2023-04-03T12:58:25;1.65;;;0.75;;
11604;SDS011;5858;43.076;25.626;2023-04-03T13:01:01;1.08;;;0.68;;
11604;SDS011;5858;43.076;25.626;2023-04-03T13:03:29;0.47;;;0.40;;
11604;SDS011;5858;43.076;25.626;2023-04-03T13:05:57;2.17;;;1.40;;
11604;SDS011;5858;43.076;25.626;2023-04-03T13:08:26;10.40;;;5.03;;
11604;SDS011;5858;43.076;25.626;2023-04-03T13:10:55;0.77;;;0.63;;
11604;SDS011;5858;43.076;25.626;2023-04-03T13:13:28;0.93;;;0.80;;
11604;SDS011;5858;43.076;25.626;2023-04-03T13:15:56;2.22;;;1.35;;
11604;SDS011;5858;43.076;25.626;2023-04-03T13:18:25;1.95;;;1.40;;
11604;SDS011;5858;43.076;25.626;2023-04-03T13:20:57;5.68;;;2.85;;
11604;SDS011;5858;43.076;25.626;2023-04-03T13:23:27;1.60;;;1.10;;
11604;SDS011;5858;43.076;25.626;2023-04-03T13:25:56;1.90;;;1.30;;
11604;SDS011;5858;43.076;25.626;2023-04-03T13:28:30;1.27;;;1.10;;
11604;SDS011;5858;43.076;25.626;2023-04-03T13:30:59;2.70;;;1.20;;
11604;SDS011;5858;43.076;25.626;2023-04-03T13:33:31;2.67;;;1.00;;
11604;SDS011;5858;43.076;25.626;2023-04-03T13:36:03;2.07;;;1.13;;
11604;SDS011;5858;43.076;25.626;2023-04-03T13:38:33;5.67;;;2.20;;
11604;SDS011;5858;43.076;25.626;2023-04-03T13:41:04;1.87;;;1.30;;
11604;SDS011;5858;43.076;25.626;2023-04-03T13:43:49;1.87;;;1.40;;
11604;SDS011;5858;43.076;25.626;2023-04-03T13:46:23;2.13;;;1.47;;
11604;SDS011;5858;43.076;25.626;2023-04-03T13:48:53;3.67;;;2.37;;
11604;SDS011;5858;43.076;25.626;2023-04-03T13:51:22;2.60;;;2.33;;
11604;SDS011;5858;43.076;25.626;2023-04-03T13:53:53;5.97;;;3.53;;
11604;SDS011;5858;43.076;25.626;2023-04-03T13:56:24;2.93;;;2.40;;
11604;SDS011;5858;43.076;25.626;2023-04-03T13:59:04;9.20;;;4.50;;
11604;SDS011;5858;43.076;25.626;2023-04-03T14:01:46;2.27;;;1.40;;
11604;SDS011;5858;43.076;25.626;2023-04-03T14:04:30;3.10;;;1.77;;
11604;SDS011;5858;43.076;25.626;2023-04-03T14:06:59;4.77;;;2.30;;
11604;SDS011;5858;43.076;25.626;2023-04-03T14:09:26;1.80;;;1.70;;
11604;SDS011;5858;43.076;25.626;2023-04-03T14:11:55;2.20;;;1.70;;
11604;SDS011;5858;43.076;25.626;2023-04-03T14:14:29;2.40;;;1.40;;
11604;SDS011;5858;43.076;25.626;2023-04-03T14:17:20;4.17;;;2.50;;
11604;SDS011;5858;43.076;25.626;2023-04-03T14:20:20;3.73;;;2.30;;
11604;SDS011;5858;43.076;25.626;2023-04-03T14:22:48;3.60;;;1.70;;
11604;SDS011;5858;43.076;25.626;2023-04-03T14:25:16;1.73;;;1.47;;
11604;SDS011;5858;43.076;25.626;2023-04-03T14:27:45;2.17;;;1.67;;
11604;SDS011;5858;43.076;25.626;2023-04-03T14:30:16;2.90;;;1.77;;
11604;SDS011;5858;43.076;25.626;2023-04-03T14:32:46;1.93;;;1.70;;
11604;SDS011;5858;43.076;25.626;2023-04-03T14:35:13;1.97;;;1.57;;
11604;SDS011;5858;43.076;25.626;2023-04-03T14:37:41;1.50;;;1.30;;
11604;SDS011;5858;43.076;25.626;2023-04-03T14:40:11;2.13;;;1.70;;
11604;SDS011;5858;43.076;25.626;2023-04-03T14:42:40;2.80;;;1.57;;
11604;SDS011;5858;43.076;25.626;2023-04-03T14:45:08;1.63;;;1.50;;
11604;SDS011;5858;43.076;25.626;2023-04-03T14:47:39;1.70;;;1.60;;
11604;SDS011;5858;43.076;25.626;2023-04-03T14:50:11;1.60;;;1.30;;
11604;SDS011;5858;43.076;25.626;2023-04-03T14:52:41;2.23;;;1.67;;
11604;SDS011;5858;43.076;25.626;2023-04-03T14:55:08;1.63;;;1.53;;
11604;SDS011;5858;43.076;25.626;2023-04-03T14:57:35;1.83;;;1.70;;
11604;SDS011;5858;43.076;25.626;2023-04-03T15:00:07;4.50;;;2.83;;
11604;SDS011;5858;43.076;25.626;2023-04-03T15:02:40;2.60;;;2.30;;
11604;SDS011;5858;43.076;25.626;2023-04-03T15:05:08;3.40;;;2.43;;
11604;SDS011;5858;43.076;25.626;2023-04-03T15:07:36;5.30;;;4.20;;
11604;SDS011;5858;43.076;25.626;2023-04-03T15:10:14;2.60;;;2.27;;
11604;SDS011;5858;43.076;25.626;2023-04-03T15:12:43;4.37;;;3.13;;
11604;SDS011;5858;43.076;25.626;2023-04-03T15:15:11;3.60;;;2.90;;
11604;SDS011;5858;43.076;25.626;2023-04-03T15:17:40;3.40;;;2.77;;
11604;SDS011;5858;43.076;25.626;2023-04-03T15:20:11;6.40;;;4.10;;
11604;SDS011;5858;43.076;25.626;2023-04-03T15:22:39;6.37;;;4.20;;
11604;SDS011;5858;43.076;25.626;2023-04-03T15:25:07;6.07;;;4.13;;
11604;SDS011;5858;43.076;25.626;2023-04-03T15:27:35;4.40;;;3.10;;
11604;SDS011;5858;43.076;25.626;2023-04-03T15:30:03;3.47;;;2.80;;
11604;SDS011;5858;43.076;25.626;2023-04-03T15:32:31;3.67;;;3.13;;
11604;SDS011;5858;43.076;25.626;2023-04-03T15:35:01;3.00;;;2.60;;
11604;SDS011;5858;43.076;25.626;2023-04-03T15:37:28;4.27;;;2.33;;
11604;SDS011;5858;43.076;25.626;2023-04-03T15:39:56;3.43;;;1.97;;
11604;SDS011;5858;43.076;25.626;2023-04-03T15:42:22;3.00;;;2.60;;
11604;SDS011;5858;43.076;25.626;2023-04-03T15:44:49;3.73;;;3.07;;
11604;SDS011;5858;43.076;25.626;2023-04-03T15:47:16;4.67;;;3.33;;
11604;SDS011;5858;43.076;25.626;2023-04-03T15:49:44;3.83;;;2.87;;
11604;SDS011;5858;43.076;25.626;2023-04-03T15:52:12;4.47;;;3.03;;